Terminal Aerodrome Forecast
Issued by NWS Los Angeles, CA

Home | Current Version | Previous Version | Text Only | Print | Product List | Glossary On
Versions: 1 2 3 4 5 6 7 8 9 10 11 12 13
025
FTUS46 KLOX 172340
TAFSMX
TAF
KSMX 172340Z 1800/1824 31011KT P6SM BKN120
     FM180200 31006KT P6SM BKN120
     FM180400 VRB03KT P6SM BKN200
     FM181800 31005KT P6SM SCT250
     FM182100 30012KT P6SM SKC=

USA.gov is the U.S. government's official web portal to all federal, state and local government web resources and services.